createdAt,value
2019-02-04T00:12:00.325Z,86.7
2019-02-04T00:27:04.715Z,85.3
2019-02-04T00:42:22.147Z,84.8
2019-02-04T00:57:33.353Z,84.2
2019-02-04T01:12:43.915Z,83.4
2019-02-04T01:27:54.845Z,81.3
2019-02-04T01:43:05.598Z,81.9
2019-02-04T01:58:16.443Z,82.8
2019-02-04T02:13:27.185Z,83
2019-02-04T02:28:37.763Z,83.6
2019-02-04T02:43:46.179Z,83.4
2019-02-04T02:59:00.066Z,83
2019-02-04T03:14:10.190Z,85
2019-02-04T03:29:21.000Z,84.5
2019-02-04T03:44:26.707Z,85
2019-02-04T03:59:43.113Z,84.2
2019-02-04T04:14:53.982Z,82
2019-02-04T04:30:04.903Z,83
2019-02-04T04:45:15.905Z,83.8
2019-02-04T05:00:26.958Z,84.9
2019-02-04T05:15:37.966Z,84.1
2019-02-04T05:30:49.141Z,83.5
2019-02-04T05:46:00.421Z,82.3
2019-02-04T06:01:09.953Z,83.1
2019-02-04T06:16:22.055Z,82.1
2019-02-04T06:31:32.980Z,82.6
2019-02-04T06:46:44.319Z,82.6
2019-02-04T07:01:48.939Z,80.9
2019-02-04T07:17:05.825Z,79.8
2019-02-04T07:32:16.740Z,79.2
2019-02-04T07:47:27.799Z,77.2
2019-02-04T08:02:31.159Z,66
2019-02-04T08:17:50.122Z,64.5
2019-02-04T08:33:01.429Z,64.2
2019-02-04T08:48:12.722Z,66.9
2019-02-04T09:03:23.986Z,69.3
2019-02-04T09:18:45.180Z,71.5
2019-02-04T09:33:46.754Z,68.2
2019-02-04T09:48:58.154Z,69.2
2019-02-04T10:04:09.880Z,65.4
2019-02-04T10:19:21.855Z,65.2
2019-02-04T10:34:33.731Z,66
2019-02-04T10:49:46.750Z,57.5
2019-02-04T11:05:01.434Z,46.2
2019-02-04T11:20:06.816Z,43.3
2019-02-04T11:35:31.591Z,43.8
2019-02-04T11:50:45.261Z,47.5
2019-02-04T12:05:58.977Z,46.8
2019-02-04T12:21:21.893Z,45
2019-02-04T12:36:26.094Z,39.1
2019-02-04T12:51:40.379Z,38.2
2019-02-04T13:06:54.563Z,35.5
2019-02-04T13:22:09.047Z,35.5
2019-02-04T13:37:23.765Z,32.2
2019-02-04T13:52:30.624Z,32.2
2019-02-04T14:07:53.052Z,31.9
2019-02-04T14:23:08.229Z,33.2
2019-02-04T14:38:22.294Z,35
2019-02-04T14:53:36.826Z,28.2
2019-02-04T15:08:43.246Z,27.9
2019-02-04T15:24:09.345Z,32.9
2019-02-04T15:39:22.628Z,36
2019-02-04T15:54:35.987Z,41
2019-02-04T16:09:48.873Z,45
2019-02-04T16:24:52.565Z,47.9
2019-02-04T16:40:13.259Z,50.2
2019-02-04T16:55:24.811Z,59.7
2019-02-04T17:10:37.439Z,52.7
2019-02-04T17:25:48.830Z,54.9
2019-02-04T17:40:58.987Z,56.8
2019-02-04T17:56:11.724Z,59
2019-02-04T18:11:22.954Z,60.9
2019-02-04T18:26:34.036Z,61
2019-02-04T18:41:38.371Z,62.8
2019-02-04T18:56:55.941Z,63.3
2019-02-04T19:12:07.055Z,64.3
2019-02-04T19:27:17.724Z,65
2019-02-04T19:42:28.491Z,68.1
2019-02-04T19:57:39.700Z,69.2
2019-02-04T20:12:49.833Z,70.6
2019-02-04T20:28:00.274Z,72.7
2019-02-04T20:43:10.710Z,74
2019-02-04T20:58:19.147Z,78.2
2019-02-04T21:13:32.118Z,72.1
2019-02-04T21:28:42.675Z,73.9
2019-02-04T21:43:53.171Z,74.2
2019-02-04T21:58:55.333Z,73.1
2019-02-04T22:14:14.332Z,72.4
2019-02-04T22:29:24.893Z,72.8
2019-02-04T22:44:37.169Z,72.6
2019-02-04T22:59:46.222Z,72
2019-02-04T23:14:56.434Z,72.6
2019-02-04T23:30:06.928Z,71
2019-02-04T23:45:17.330Z,70.8
